Leicester, Nebraska
Current Conditions -  °F | °C
As of 5:53 PM on Saturday 20 Dec 2014 (Local Time) from KHSI Reporting Station
Haze Haze  
Wind Chill: 28°   Ceiling: Unl
Heat Index: 35°   Visibility: 6mi
Dew Point: 32°   Wind: 9mph
Humidity: 89%   Direction: 130°SE
Pressure: 29.97"   Gusts: NA
Location:  40.6549°N, 98.2217°W
Report Text: KHSI 202353Z AUTO 13008KT 6SM BR CLR 02/00 A2997 RMK AO2 SLP169 T00170000 10061 20000 58000
Loading
Personal Weather Stations






























Interactive Weather Map New forecast layout! Learn more

10-Day Weather Forecast

Advertisements
Track Severe Weather on mobile